sensor_id;sensor_type;location;lat;lon;timestamp;pressure;altitude;pressure_sealevel;temperature
7389;BMP180;3735;50.136;11.062;2024-03-22T00:01:59;98824.00;;;4.20
7389;BMP180;3735;50.136;11.062;2024-03-22T00:04:26;98814.00;;;4.20
7389;BMP180;3735;50.136;11.062;2024-03-22T00:06:51;98821.00;;;4.10
7389;BMP180;3735;50.136;11.062;2024-03-22T00:09:17;98807.00;;;4.20
7389;BMP180;3735;50.136;11.062;2024-03-22T00:11:44;98805.00;;;4.10
7389;BMP180;3735;50.136;11.062;2024-03-22T00:14:11;98809.00;;;4.10
7389;BMP180;3735;50.136;11.062;2024-03-22T00:16:38;98810.00;;;4.20
7389;BMP180;3735;50.136;11.062;2024-03-22T00:19:04;98819.00;;;4.20
7389;BMP180;3735;50.136;11.062;2024-03-22T00:21:30;98803.00;;;4.20
7389;BMP180;3735;50.136;11.062;2024-03-22T00:23:57;98791.00;;;4.10
7389;BMP180;3735;50.136;11.062;2024-03-22T00:26:23;98801.00;;;4.20
7389;BMP180;3735;50.136;11.062;2024-03-22T00:28:49;98801.00;;;4.20
7389;BMP180;3735;50.136;11.062;2024-03-22T00:31:16;98804.00;;;4.20
7389;BMP180;3735;50.136;11.062;2024-03-22T00:33:42;98798.00;;;4.20
7389;BMP180;3735;50.136;11.062;2024-03-22T00:36:08;98793.00;;;4.20
7389;BMP180;3735;50.136;11.062;2024-03-22T00:38:34;98793.00;;;4.10
7389;BMP180;3735;50.136;11.062;2024-03-22T00:41:00;98792.00;;;4.10
7389;BMP180;3735;50.136;11.062;2024-03-22T00:43:26;98800.00;;;4.00
7389;BMP180;3735;50.136;11.062;2024-03-22T00:45:52;98803.00;;;3.90
7389;BMP180;3735;50.136;11.062;2024-03-22T00:48:17;98785.00;;;3.80
7389;BMP180;3735;50.136;11.062;2024-03-22T00:50:44;98781.00;;;3.70
7389;BMP180;3735;50.136;11.062;2024-03-22T00:53:09;98773.00;;;3.70
7389;BMP180;3735;50.136;11.062;2024-03-22T00:55:36;98793.00;;;3.60
7389;BMP180;3735;50.136;11.062;2024-03-22T00:58:01;98804.00;;;3.50
7389;BMP180;3735;50.136;11.062;2024-03-22T01:00:27;98786.00;;;3.40
7389;BMP180;3735;50.136;11.062;2024-03-22T01:02:53;98775.00;;;3.40
7389;BMP180;3735;50.136;11.062;2024-03-22T01:05:19;98768.00;;;3.40
7389;BMP180;3735;50.136;11.062;2024-03-22T01:07:45;98783.00;;;3.40
7389;BMP180;3735;50.136;11.062;2024-03-22T01:10:12;98771.00;;;3.40
7389;BMP180;3735;50.136;11.062;2024-03-22T01:12:38;98773.00;;;3.40
7389;BMP180;3735;50.136;11.062;2024-03-22T01:15:06;98779.00;;;3.40
7389;BMP180;3735;50.136;11.062;2024-03-22T01:17:32;98764.00;;;3.30
7389;BMP180;3735;50.136;11.062;2024-03-22T01:19:58;98783.00;;;3.30
7389;BMP180;3735;50.136;11.062;2024-03-22T01:22:24;98782.00;;;3.20
7389;BMP180;3735;50.136;11.062;2024-03-22T01:24:50;98780.00;;;3.20
7389;BMP180;3735;50.136;11.062;2024-03-22T01:27:16;98776.00;;;3.30
7389;BMP180;3735;50.136;11.062;2024-03-22T01:29:41;98766.00;;;3.20
7389;BMP180;3735;50.136;11.062;2024-03-22T01:32:07;98765.00;;;3.20
7389;BMP180;3735;50.136;11.062;2024-03-22T01:34:33;98765.00;;;3.20
7389;BMP180;3735;50.136;11.062;2024-03-22T01:37:00;98769.00;;;3.10
7389;BMP180;3735;50.136;11.062;2024-03-22T01:39:26;98770.00;;;3.10
7389;BMP180;3735;50.136;11.062;2024-03-22T01:41:52;98765.00;;;3.00
7389;BMP180;3735;50.136;11.062;2024-03-22T01:44:18;98762.00;;;2.90
7389;BMP180;3735;50.136;11.062;2024-03-22T01:46:48;98753.00;;;2.90
7389;BMP180;3735;50.136;11.062;2024-03-22T01:49:16;98766.00;;;2.90
7389;BMP180;3735;50.136;11.062;2024-03-22T01:51:42;98724.00;;;2.90
7389;BMP180;3735;50.136;11.062;2024-03-22T01:54:09;98772.00;;;2.80
7389;BMP180;3735;50.136;11.062;2024-03-22T01:56:39;98768.00;;;2.80
7389;BMP180;3735;50.136;11.062;2024-03-22T01:59:06;98763.00;;;2.80
7389;BMP180;3735;50.136;11.062;2024-03-22T02:01:33;98754.00;;;2.80
7389;BMP180;3735;50.136;11.062;2024-03-22T02:04:00;98744.00;;;2.80
7389;BMP180;3735;50.136;11.062;2024-03-22T02:06:25;98751.00;;;2.70
7389;BMP180;3735;50.136;11.062;2024-03-22T02:08:51;98753.00;;;2.70
7389;BMP180;3735;50.136;11.062;2024-03-22T02:11:17;98743.00;;;2.60
7389;BMP180;3735;50.136;11.062;2024-03-22T02:13:44;98745.00;;;2.60
7389;BMP180;3735;50.136;11.062;2024-03-22T02:16:10;98734.00;;;2.50
7389;BMP180;3735;50.136;11.062;2024-03-22T02:18:36;98714.00;;;2.50
7389;BMP180;3735;50.136;11.062;2024-03-22T02:21:02;98719.00;;;2.50
7389;BMP180;3735;50.136;11.062;2024-03-22T02:23:34;98727.00;;;2.40
7389;BMP180;3735;50.136;11.062;2024-03-22T02:26:01;98714.00;;;2.40
7389;BMP180;3735;50.136;11.062;2024-03-22T02:28:27;98713.00;;;2.40
7389;BMP180;3735;50.136;11.062;2024-03-22T02:30:53;98716.00;;;2.40
7389;BMP180;3735;50.136;11.062;2024-03-22T02:33:19;98721.00;;;2.40
7389;BMP180;3735;50.136;11.062;2024-03-22T02:35:49;98719.00;;;2.40
7389;BMP180;3735;50.136;11.062;2024-03-22T02:38:16;98714.00;;;2.50
7389;BMP180;3735;50.136;11.062;2024-03-22T02:40:44;98702.00;;;2.50
7389;BMP180;3735;50.136;11.062;2024-03-22T02:43:11;98689.00;;;2.60
7389;BMP180;3735;50.136;11.062;2024-03-22T02:45:37;98695.00;;;2.60
7389;BMP180;3735;50.136;11.062;2024-03-22T02:48:03;98694.00;;;2.70
7389;BMP180;3735;50.136;11.062;2024-03-22T02:50:34;98694.00;;;2.80
7389;BMP180;3735;50.136;11.062;2024-03-22T02:53:00;98693.00;;;2.90
7389;BMP180;3735;50.136;11.062;2024-03-22T02:55:26;98680.00;;;2.90
7389;BMP180;3735;50.136;11.062;2024-03-22T02:57:51;98689.00;;;3.00
7389;BMP180;3735;50.136;11.062;2024-03-22T03:00:18;98690.00;;;3.10
7389;BMP180;3735;50.136;11.062;2024-03-22T03:02:45;98677.00;;;3.10
7389;BMP180;3735;50.136;11.062;2024-03-22T03:05:11;98679.00;;;3.10
7389;BMP180;3735;50.136;11.062;2024-03-22T03:07:37;98687.00;;;3.10
7389;BMP180;3735;50.136;11.062;2024-03-22T03:10:03;98678.00;;;3.20
7389;BMP180;3735;50.136;11.062;2024-03-22T03:12:28;98680.00;;;3.30
7389;BMP180;3735;50.136;11.062;2024-03-22T03:14:54;98677.00;;;3.20
7389;BMP180;3735;50.136;11.062;2024-03-22T03:17:20;98680.00;;;3.30
7389;BMP180;3735;50.136;11.062;2024-03-22T03:19:46;98680.00;;;3.40
7389;BMP180;3735;50.136;11.062;2024-03-22T03:22:11;98679.00;;;3.40
7389;BMP180;3735;50.136;11.062;2024-03-22T03:24:37;98673.00;;;3.40
7389;BMP180;3735;50.136;11.062;2024-03-22T03:27:03;98663.00;;;3.40
7389;BMP180;3735;50.136;11.062;2024-03-22T03:29:29;98674.00;;;3.30
7389;BMP180;3735;50.136;11.062;2024-03-22T03:31:54;98678.00;;;3.30
7389;BMP180;3735;50.136;11.062;2024-03-22T03:34:20;98670.00;;;3.30
7389;BMP180;3735;50.136;11.062;2024-03-22T03:36:46;98660.00;;;3.20
7389;BMP180;3735;50.136;11.062;2024-03-22T03:39:12;98673.00;;;3.30
7389;BMP180;3735;50.136;11.062;2024-03-22T03:41:38;98659.00;;;3.20
7389;BMP180;3735;50.136;11.062;2024-03-22T03:44:04;98664.00;;;3.20
7389;BMP180;3735;50.136;11.062;2024-03-22T03:46:29;98670.00;;;3.20
7389;BMP180;3735;50.136;11.062;2024-03-22T03:48:55;98661.00;;;3.20
7389;BMP180;3735;50.136;11.062;2024-03-22T03:51:21;98661.00;;;3.20
7389;BMP180;3735;50.136;11.062;2024-03-22T03:53:47;98676.00;;;3.10
7389;BMP180;3735;50.136;11.062;2024-03-22T03:56:12;98681.00;;;3.10
7389;BMP180;3735;50.136;11.062;2024-03-22T03:58:38;98676.00;;;3.10
7389;BMP180;3735;50.136;11.062;2024-03-22T04:01:08;98671.00;;;3.20
7389;BMP180;3735;50.136;11.062;2024-03-22T04:03:34;98676.00;;;3.20
7389;BMP180;3735;50.136;11.062;2024-03-22T04:06:00;98669.00;;;3.10
7389;BMP180;3735;50.136;11.062;2024-03-22T04:08:27;98668.00;;;3.00
7389;BMP180;3735;50.136;11.062;2024-03-22T04:10:57;98669.00;;;2.90
7389;BMP180;3735;50.136;11.062;2024-03-22T04:13:27;98659.00;;;2.90
7389;BMP180;3735;50.136;11.062;2024-03-22T04:15:53;98654.00;;;3.00
7389;BMP180;3735;50.136;11.062;2024-03-22T04:18:20;98638.00;;;2.90
7389;BMP180;3735;50.136;11.062;2024-03-22T04:20:56;98652.00;;;2.90
7389;BMP180;3735;50.136;11.062;2024-03-22T04:23:23;98652.00;;;2.80
7389;BMP180;3735;50.136;11.062;2024-03-22T04:25:58;98647.00;;;2.70
7389;BMP180;3735;50.136;11.062;2024-03-22T04:28:26;98645.00;;;2.60
7389;BMP180;3735;50.136;11.062;2024-03-22T04:31:09;98649.00;;;2.40
7389;BMP180;3735;50.136;11.062;2024-03-22T04:33:37;98651.00;;;2.40
7389;BMP180;3735;50.136;11.062;2024-03-22T04:36:04;98636.00;;;2.40
7389;BMP180;3735;50.136;11.062;2024-03-22T04:38:30;98641.00;;;2.40
7389;BMP180;3735;50.136;11.062;2024-03-22T04:40:56;98631.00;;;2.20
7389;BMP180;3735;50.136;11.062;2024-03-22T04:43:25;98630.00;;;2.10
7389;BMP180;3735;50.136;11.062;2024-03-22T04:45:52;98614.00;;;2.10
7389;BMP180;3735;50.136;11.062;2024-03-22T04:48:20;98633.00;;;2.10
7389;BMP180;3735;50.136;11.062;2024-03-22T04:50:47;98635.00;;;2.00
7389;BMP180;3735;50.136;11.062;2024-03-22T04:53:16;98633.00;;;1.90
7389;BMP180;3735;50.136;11.062;2024-03-22T04:55:46;98610.00;;;1.80
7389;BMP180;3735;50.136;11.062;2024-03-22T04:58:17;98628.00;;;1.80
7389;BMP180;3735;50.136;11.062;2024-03-22T05:00:44;98639.00;;;1.80
7389;BMP180;3735;50.136;11.062;2024-03-22T05:03:10;98635.00;;;1.90
7389;BMP180;3735;50.136;11.062;2024-03-22T05:05:37;98635.00;;;1.90
7389;BMP180;3735;50.136;11.062;2024-03-22T05:08:03;98630.00;;;1.90
7389;BMP180;3735;50.136;11.062;2024-03-22T05:10:30;98627.00;;;1.90
7389;BMP180;3735;50.136;11.062;2024-03-22T05:12:57;98628.00;;;1.80
7389;BMP180;3735;50.136;11.062;2024-03-22T05:15:23;98630.00;;;1.80
7389;BMP180;3735;50.136;11.062;2024-03-22T05:18:00;98625.00;;;1.80
7389;BMP180;3735;50.136;11.062;2024-03-22T05:20:26;98641.00;;;1.90
7389;BMP180;3735;50.136;11.062;2024-03-22T05:22:52;98619.00;;;2.00
7389;BMP180;3735;50.136;11.062;2024-03-22T05:25:18;98631.00;;;2.10
7389;BMP180;3735;50.136;11.062;2024-03-22T05:27:44;98625.00;;;2.10
7389;BMP180;3735;50.136;11.062;2024-03-22T05:30:12;98621.00;;;2.40
7389;BMP180;3735;50.136;11.062;2024-03-22T05:32:39;98603.00;;;2.50
7389;BMP180;3735;50.136;11.062;2024-03-22T05:35:06;98614.00;;;2.60
7389;BMP180;3735;50.136;11.062;2024-03-22T05:37:32;98606.00;;;2.70
7389;BMP180;3735;50.136;11.062;2024-03-22T05:40:00;98596.00;;;2.90
7389;BMP180;3735;50.136;11.062;2024-03-22T05:42:26;98590.00;;;3.00
7389;BMP180;3735;50.136;11.062;2024-03-22T05:44:52;98594.00;;;3.10
7389;BMP180;3735;50.136;11.062;2024-03-22T05:47:19;98583.00;;;3.20
7389;BMP180;3735;50.136;11.062;2024-03-22T05:49:45;98581.00;;;3.30
7389;BMP180;3735;50.136;11.062;2024-03-22T05:52:11;98566.00;;;3.40
7389;BMP180;3735;50.136;11.062;2024-03-22T05:54:37;98575.00;;;3.50
7389;BMP180;3735;50.136;11.062;2024-03-22T05:57:03;98579.00;;;3.60
7389;BMP180;3735;50.136;11.062;2024-03-22T05:59:31;98581.00;;;3.80
7389;BMP180;3735;50.136;11.062;2024-03-22T06:01:57;98593.00;;;3.90
7389;BMP180;3735;50.136;11.062;2024-03-22T06:04:23;98581.00;;;3.90
7389;BMP180;3735;50.136;11.062;2024-03-22T06:06:49;98581.00;;;4.00
7389;BMP180;3735;50.136;11.062;2024-03-22T06:09:16;98574.00;;;4.10
7389;BMP180;3735;50.136;11.062;2024-03-22T06:11:52;98573.00;;;4.20
7389;BMP180;3735;50.136;11.062;2024-03-22T06:14:18;98566.00;;;4.20
7389;BMP180;3735;50.136;11.062;2024-03-22T06:16:43;98571.00;;;4.30
7389;BMP180;3735;50.136;11.062;2024-03-22T06:19:09;98564.00;;;4.30
7389;BMP180;3735;50.136;11.062;2024-03-22T06:21:35;98577.00;;;4.40
7389;BMP180;3735;50.136;11.062;2024-03-22T06:24:01;98566.00;;;4.40
7389;BMP180;3735;50.136;11.062;2024-03-22T06:26:27;98551.00;;;4.50
7389;BMP180;3735;50.136;11.062;2024-03-22T06:28:53;98547.00;;;4.60
7389;BMP180;3735;50.136;11.062;2024-03-22T06:31:18;98548.00;;;4.60
7389;BMP180;3735;50.136;11.062;2024-03-22T06:33:44;98540.00;;;4.70
7389;BMP180;3735;50.136;11.062;2024-03-22T06:36:10;98550.00;;;4.80
7389;BMP180;3735;50.136;11.062;2024-03-22T06:38:35;98545.00;;;4.90
7389;BMP180;3735;50.136;11.062;2024-03-22T06:41:01;98547.00;;;4.90
7389;BMP180;3735;50.136;11.062;2024-03-22T06:43:27;98549.00;;;5.10
7389;BMP180;3735;50.136;11.062;2024-03-22T06:45:53;98548.00;;;5.20
7389;BMP180;3735;50.136;11.062;2024-03-22T06:48:18;98549.00;;;5.20
7389;BMP180;3735;50.136;11.062;2024-03-22T06:50:44;98542.00;;;5.30
7389;BMP180;3735;50.136;11.062;2024-03-22T06:53:11;98539.00;;;5.50
7389;BMP180;3735;50.136;11.062;2024-03-22T06:55:37;98546.00;;;5.70
7389;BMP180;3735;50.136;11.062;2024-03-22T06:58:03;98524.00;;;5.80
7389;BMP180;3735;50.136;11.062;2024-03-22T07:00:29;98523.00;;;5.90
7389;BMP180;3735;50.136;11.062;2024-03-22T07:02:56;98530.00;;;6.10
7389;BMP180;3735;50.136;11.062;2024-03-22T07:05:22;98530.00;;;6.20
7389;BMP180;3735;50.136;11.062;2024-03-22T07:07:48;98530.00;;;6.30
7389;BMP180;3735;50.136;11.062;2024-03-22T07:10:16;98539.00;;;6.40
7389;BMP180;3735;50.136;11.062;2024-03-22T07:12:42;98522.00;;;6.60
7389;BMP180;3735;50.136;11.062;2024-03-22T07:15:08;98531.00;;;6.70
7389;BMP180;3735;50.136;11.062;2024-03-22T07:17:34;98536.00;;;6.90
7389;BMP180;3735;50.136;11.062;2024-03-22T07:20:00;98538.00;;;7.10
7389;BMP180;3735;50.136;11.062;2024-03-22T07:22:26;98531.00;;;7.50
7389;BMP180;3735;50.136;11.062;2024-03-22T07:24:51;98536.00;;;8.00
7389;BMP180;3735;50.136;11.062;2024-03-22T07:27:17;98536.00;;;8.40
7389;BMP180;3735;50.136;11.062;2024-03-22T07:29:44;98534.00;;;9.10
7389;BMP180;3735;50.136;11.062;2024-03-22T07:32:10;98529.00;;;10.10
7389;BMP180;3735;50.136;11.062;2024-03-22T07:34:36;98518.00;;;11.20
7389;BMP180;3735;50.136;11.062;2024-03-22T07:37:03;98515.00;;;12.30
7389;BMP180;3735;50.136;11.062;2024-03-22T07:39:30;98503.00;;;13.60
7389;BMP180;3735;50.136;11.062;2024-03-22T07:41:55;98506.00;;;15.10
7389;BMP180;3735;50.136;11.062;2024-03-22T07:44:21;98496.00;;;15.10
7389;BMP180;3735;50.136;11.062;2024-03-22T07:46:49;98501.00;;;14.70
7389;BMP180;3735;50.136;11.062;2024-03-22T07:49:15;98488.00;;;15.80
7389;BMP180;3735;50.136;11.062;2024-03-22T07:51:41;98478.00;;;16.70
7389;BMP180;3735;50.136;11.062;2024-03-22T07:54:06;98483.00;;;16.70
7389;BMP180;3735;50.136;11.062;2024-03-22T07:56:32;98476.00;;;16.90
7389;BMP180;3735;50.136;11.062;2024-03-22T07:58:58;98474.00;;;18.00
7389;BMP180;3735;50.136;11.062;2024-03-22T08:01:25;98477.00;;;18.80
7389;BMP180;3735;50.136;11.062;2024-03-22T08:03:54;98479.00;;;19.20
7389;BMP180;3735;50.136;11.062;2024-03-22T08:06:20;98475.00;;;18.70
7389;BMP180;3735;50.136;11.062;2024-03-22T08:08:46;98472.00;;;18.30
7389;BMP180;3735;50.136;11.062;2024-03-22T08:11:11;98481.00;;;17.70
7389;BMP180;3735;50.136;11.062;2024-03-22T08:13:37;98489.00;;;16.50
7389;BMP180;3735;50.136;11.062;2024-03-22T08:16:04;98498.00;;;15.30
7389;BMP180;3735;50.136;11.062;2024-03-22T08:18:31;98497.00;;;14.90
7389;BMP180;3735;50.136;11.062;2024-03-22T08:20:59;98498.00;;;14.60
7389;BMP180;3735;50.136;11.062;2024-03-22T08:23:25;98500.00;;;13.90
7389;BMP180;3735;50.136;11.062;2024-03-22T08:25:51;98502.00;;;13.50
7389;BMP180;3735;50.136;11.062;2024-03-22T08:28:16;98501.00;;;13.00
7389;BMP180;3735;50.136;11.062;2024-03-22T08:30:43;98495.00;;;12.70
7389;BMP180;3735;50.136;11.062;2024-03-22T08:33:12;98502.00;;;11.90
7389;BMP180;3735;50.136;11.062;2024-03-22T08:35:38;98500.00;;;11.80
7389;BMP180;3735;50.136;11.062;2024-03-22T08:38:04;98483.00;;;11.60
7389;BMP180;3735;50.136;11.062;2024-03-22T08:40:38;98494.00;;;11.60
7389;BMP180;3735;50.136;11.062;2024-03-22T08:43:05;98476.00;;;11.70
7389;BMP180;3735;50.136;11.062;2024-03-22T08:45:33;98482.00;;;11.40
7389;BMP180;3735;50.136;11.062;2024-03-22T08:47:59;98474.00;;;11.70
7389;BMP180;3735;50.136;11.062;2024-03-22T08:50:25;98477.00;;;11.80
7389;BMP180;3735;50.136;11.062;2024-03-22T08:52:51;98474.00;;;12.00
7389;BMP180;3735;50.136;11.062;2024-03-22T08:55:17;98471.00;;;11.80
7389;BMP180;3735;50.136;11.062;2024-03-22T08:57:43;98469.00;;;11.90
7389;BMP180;3735;50.136;11.062;2024-03-22T09:00:11;98464.00;;;12.10
7389;BMP180;3735;50.136;11.062;2024-03-22T09:02:37;98461.00;;;12.50
7389;BMP180;3735;50.136;11.062;2024-03-22T09:05:05;98432.00;;;12.60
7389;BMP180;3735;50.136;11.062;2024-03-22T09:07:31;98449.00;;;13.10
7389;BMP180;3735;50.136;11.062;2024-03-22T09:09:57;98437.00;;;13.50
7389;BMP180;3735;50.136;11.062;2024-03-22T09:12:23;98424.00;;;13.80
7389;BMP180;3735;50.136;11.062;2024-03-22T09:14:48;98432.00;;;14.40
7389;BMP180;3735;50.136;11.062;2024-03-22T09:17:14;98438.00;;;14.90
7389;BMP180;3735;50.136;11.062;2024-03-22T09:19:40;98431.00;;;15.30
7389;BMP180;3735;50.136;11.062;2024-03-22T09:22:06;98416.00;;;15.40
7389;BMP180;3735;50.136;11.062;2024-03-22T09:24:32;98418.00;;;15.80
7389;BMP180;3735;50.136;11.062;2024-03-22T09:26:58;98422.00;;;16.30
7389;BMP180;3735;50.136;11.062;2024-03-22T09:29:24;98423.00;;;16.50
7389;BMP180;3735;50.136;11.062;2024-03-22T09:31:50;98418.00;;;16.80
7389;BMP180;3735;50.136;11.062;2024-03-22T09:34:18;98416.00;;;17.00
7389;BMP180;3735;50.136;11.062;2024-03-22T09:36:48;98407.00;;;17.30
7389;BMP180;3735;50.136;11.062;2024-03-22T09:39:14;98399.00;;;17.80
7389;BMP180;3735;50.136;11.062;2024-03-22T09:41:43;98395.00;;;18.20
7389;BMP180;3735;50.136;11.062;2024-03-22T09:44:13;98391.00;;;18.00
7389;BMP180;3735;50.136;11.062;2024-03-22T09:46:42;98396.00;;;17.90
7389;BMP180;3735;50.136;11.062;2024-03-22T09:49:10;98393.00;;;16.90
7389;BMP180;3735;50.136;11.062;2024-03-22T09:51:37;98385.00;;;17.00
7389;BMP180;3735;50.136;11.062;2024-03-22T09:54:04;98381.00;;;17.30
7389;BMP180;3735;50.136;11.062;2024-03-22T09:56:31;98389.00;;;17.50
7389;BMP180;3735;50.136;11.062;2024-03-22T09:58:58;98371.00;;;18.10
7389;BMP180;3735;50.136;11.062;2024-03-22T10:01:28;98376.00;;;18.60
7389;BMP180;3735;50.136;11.062;2024-03-22T10:03:55;98375.00;;;18.30
7389;BMP180;3735;50.136;11.062;2024-03-22T10:06:21;98367.00;;;18.50
7389;BMP180;3735;50.136;11.062;2024-03-22T10:08:47;98367.00;;;17.70
7389;BMP180;3735;50.136;11.062;2024-03-22T10:11:13;98355.00;;;17.60
7389;BMP180;3735;50.136;11.062;2024-03-22T10:13:39;98363.00;;;17.90
7389;BMP180;3735;50.136;11.062;2024-03-22T10:16:05;98371.00;;;18.00
7389;BMP180;3735;50.136;11.062;2024-03-22T10:18:34;98369.00;;;17.50
7389;BMP180;3735;50.136;11.062;2024-03-22T10:21:01;98351.00;;;17.30
7389;BMP180;3735;50.136;11.062;2024-03-22T10:23:29;98366.00;;;16.60
7389;BMP180;3735;50.136;11.062;2024-03-22T10:25:57;98347.00;;;16.50
7389;BMP180;3735;50.136;11.062;2024-03-22T10:28:27;98349.00;;;16.40
7389;BMP180;3735;50.136;11.062;2024-03-22T10:30:53;98347.00;;;15.80
7389;BMP180;3735;50.136;11.062;2024-03-22T10:33:20;98353.00;;;16.20
7389;BMP180;3735;50.136;11.062;2024-03-22T10:35:53;98342.00;;;16.20
7389;BMP180;3735;50.136;11.062;2024-03-22T10:38:20;98335.00;;;16.50
7389;BMP180;3735;50.136;11.062;2024-03-22T10:40:47;98342.00;;;16.40
7389;BMP180;3735;50.136;11.062;2024-03-22T10:43:15;98338.00;;;16.30
7389;BMP180;3735;50.136;11.062;2024-03-22T10:45:41;98336.00;;;16.60
7389;BMP180;3735;50.136;11.062;2024-03-22T10:48:11;98328.00;;;17.10
7389;BMP180;3735;50.136;11.062;2024-03-22T10:50:41;98322.00;;;17.70
7389;BMP180;3735;50.136;11.062;2024-03-22T10:53:19;98305.00;;;17.60
7389;BMP180;3735;50.136;11.062;2024-03-22T10:55:51;98304.00;;;18.20
7389;BMP180;3735;50.136;11.062;2024-03-22T10:58:22;98307.00;;;18.70
7389;BMP180;3735;50.136;11.062;2024-03-22T11:00:54;98299.00;;;19.50
7389;BMP180;3735;50.136;11.062;2024-03-22T11:03:22;98291.00;;;19.30
7389;BMP180;3735;50.136;11.062;2024-03-22T11:05:56;98286.00;;;19.30
7389;BMP180;3735;50.136;11.062;2024-03-22T11:08:27;98275.00;;;20.10
7389;BMP180;3735;50.136;11.062;2024-03-22T11:10:54;98286.00;;;19.30
7389;BMP180;3735;50.136;11.062;2024-03-22T11:13:20;98274.00;;;19.20
7389;BMP180;3735;50.136;11.062;2024-03-22T11:15:50;98269.00;;;18.90
7389;BMP180;3735;50.136;11.062;2024-03-22T11:18:17;98256.00;;;20.20
7389;BMP180;3735;50.136;11.062;2024-03-22T11:20:44;98253.00;;;20.50
7389;BMP180;3735;50.136;11.062;2024-03-22T11:23:13;98250.00;;;20.60
7389;BMP180;3735;50.136;11.062;2024-03-22T11:25:39;98251.00;;;19.90
7389;BMP180;3735;50.136;11.062;2024-03-22T11:28:05;98250.00;;;19.40
7389;BMP180;3735;50.136;11.062;2024-03-22T11:30:33;98247.00;;;19.00
7389;BMP180;3735;50.136;11.062;2024-03-22T11:33:03;98245.00;;;19.00
7389;BMP180;3735;50.136;11.062;2024-03-22T11:35:29;98238.00;;;18.50
7389;BMP180;3735;50.136;11.062;2024-03-22T11:37:55;98244.00;;;18.30
7389;BMP180;3735;50.136;11.062;2024-03-22T11:40:26;98231.00;;;18.20
7389;BMP180;3735;50.136;11.062;2024-03-22T11:42:54;98238.00;;;18.50
7389;BMP180;3735;50.136;11.062;2024-03-22T11:45:22;98232.00;;;18.50
7389;BMP180;3735;50.136;11.062;2024-03-22T11:47:48;98234.00;;;18.10
7389;BMP180;3735;50.136;11.062;2024-03-22T11:50:15;98235.00;;;18.40
7389;BMP180;3735;50.136;11.062;2024-03-22T11:52:42;98210.00;;;19.10
7389;BMP180;3735;50.136;11.062;2024-03-22T11:55:10;98229.00;;;19.00
7389;BMP180;3735;50.136;11.062;2024-03-22T11:57:36;98227.00;;;19.00
7389;BMP180;3735;50.136;11.062;2024-03-22T12:00:04;98217.00;;;19.20
7389;BMP180;3735;50.136;11.062;2024-03-22T12:02:36;98214.00;;;18.60
7389;BMP180;3735;50.136;11.062;2024-03-22T12:05:03;98211.00;;;19.20
7389;BMP180;3735;50.136;11.062;2024-03-22T12:07:29;98213.00;;;18.90
7389;BMP180;3735;50.136;11.062;2024-03-22T12:09:55;98207.00;;;18.50
7389;BMP180;3735;50.136;11.062;2024-03-22T12:12:22;98202.00;;;18.90
7389;BMP180;3735;50.136;11.062;2024-03-22T12:14:50;98197.00;;;19.30
7389;BMP180;3735;50.136;11.062;2024-03-22T12:17:17;98196.00;;;20.10
7389;BMP180;3735;50.136;11.062;2024-03-22T12:19:43;98194.00;;;20.50
7389;BMP180;3735;50.136;11.062;2024-03-22T12:22:09;98193.00;;;20.80
7389;BMP180;3735;50.136;11.062;2024-03-22T12:24:36;98182.00;;;20.70
7389;BMP180;3735;50.136;11.062;2024-03-22T12:27:02;98176.00;;;20.80
7389;BMP180;3735;50.136;11.062;2024-03-22T12:29:28;98169.00;;;20.20
7389;BMP180;3735;50.136;11.062;2024-03-22T12:31:54;98175.00;;;19.60
7389;BMP180;3735;50.136;11.062;2024-03-22T12:34:20;98164.00;;;19.50
7389;BMP180;3735;50.136;11.062;2024-03-22T12:36:46;98169.00;;;18.90
7389;BMP180;3735;50.136;11.062;2024-03-22T12:39:12;98158.00;;;18.90
7389;BMP180;3735;50.136;11.062;2024-03-22T12:41:38;98161.00;;;18.30
7389;BMP180;3735;50.136;11.062;2024-03-22T12:44:04;98169.00;;;17.80
7389;BMP180;3735;50.136;11.062;2024-03-22T12:46:30;98171.00;;;17.20
7389;BMP180;3735;50.136;11.062;2024-03-22T12:48:55;98167.00;;;17.00
7389;BMP180;3735;50.136;11.062;2024-03-22T12:51:21;98156.00;;;17.00
7389;BMP180;3735;50.136;11.062;2024-03-22T12:53:47;98159.00;;;16.90
7389;BMP180;3735;50.136;11.062;2024-03-22T12:56:13;98156.00;;;16.80
7389;BMP180;3735;50.136;11.062;2024-03-22T12:58:39;98149.00;;;16.90
7389;BMP180;3735;50.136;11.062;2024-03-22T13:01:06;98145.00;;;16.90
7389;BMP180;3735;50.136;11.062;2024-03-22T13:03:33;98135.00;;;17.00
7389;BMP180;3735;50.136;11.062;2024-03-22T13:05:59;98135.00;;;17.30
7389;BMP180;3735;50.136;11.062;2024-03-22T13:08:25;98134.00;;;17.20
7389;BMP180;3735;50.136;11.062;2024-03-22T13:10:50;98118.00;;;17.10
7389;BMP180;3735;50.136;11.062;2024-03-22T13:13:18;98123.00;;;17.10
7389;BMP180;3735;50.136;11.062;2024-03-22T13:15:44;98128.00;;;17.30
7389;BMP180;3735;50.136;11.062;2024-03-22T13:18:11;98112.00;;;17.30
7389;BMP180;3735;50.136;11.062;2024-03-22T13:20:36;98108.00;;;17.30
7389;BMP180;3735;50.136;11.062;2024-03-22T13:23:03;98109.00;;;17.40
7389;BMP180;3735;50.136;11.062;2024-03-22T13:25:29;98101.00;;;17.00
7389;BMP180;3735;50.136;11.062;2024-03-22T13:27:55;98077.00;;;17.20
7389;BMP180;3735;50.136;11.062;2024-03-22T13:30:21;98096.00;;;17.20
7389;BMP180;3735;50.136;11.062;2024-03-22T13:32:47;98086.00;;;17.50
7389;BMP180;3735;50.136;11.062;2024-03-22T13:35:13;98068.00;;;17.10
7389;BMP180;3735;50.136;11.062;2024-03-22T13:37:41;98072.00;;;17.00
7389;BMP180;3735;50.136;11.062;2024-03-22T13:40:07;98052.00;;;17.30
7389;BMP180;3735;50.136;11.062;2024-03-22T13:42:34;98052.00;;;17.30
7389;BMP180;3735;50.136;11.062;2024-03-22T13:45:00;98065.00;;;17.60
7389;BMP180;3735;50.136;11.062;2024-03-22T13:47:27;98058.00;;;17.50
7389;BMP180;3735;50.136;11.062;2024-03-22T13:49:55;98043.00;;;17.60
7389;BMP180;3735;50.136;11.062;2024-03-22T13:52:21;98043.00;;;17.50
7389;BMP180;3735;50.136;11.062;2024-03-22T13:54:47;98045.00;;;17.70
7389;BMP180;3735;50.136;11.062;2024-03-22T13:57:13;98045.00;;;17.80
7389;BMP180;3735;50.136;11.062;2024-03-22T13:59:38;98037.00;;;17.70
7389;BMP180;3735;50.136;11.062;2024-03-22T14:02:06;98040.00;;;17.50
7389;BMP180;3735;50.136;11.062;2024-03-22T14:04:34;98031.00;;;17.70
7389;BMP180;3735;50.136;11.062;2024-03-22T14:07:00;98027.00;;;17.30
7389;BMP180;3735;50.136;11.062;2024-03-22T14:09:34;98012.00;;;17.30
7389;BMP180;3735;50.136;11.062;2024-03-22T14:12:00;98025.00;;;17.20
7389;BMP180;3735;50.136;11.062;2024-03-22T14:14:26;98032.00;;;17.20
7389;BMP180;3735;50.136;11.062;2024-03-22T14:16:53;98021.00;;;17.20
7389;BMP180;3735;50.136;11.062;2024-03-22T14:19:19;98023.00;;;17.20
7389;BMP180;3735;50.136;11.062;2024-03-22T14:21:47;98032.00;;;17.00
7389;BMP180;3735;50.136;11.062;2024-03-22T14:24:16;98029.00;;;17.00
7389;BMP180;3735;50.136;11.062;2024-03-22T14:26:42;98016.00;;;16.90